sensor_id;sensor_type;location;lat;lon;timestamp;pressure;altitude;pressure_sealevel;temperature;humidity
45327;BME280;31062;49.678;24.560;2022-12-20T00:01:38;99448.78;;;-6.64;75.11
45327;BME280;31062;49.678;24.560;2022-12-20T00:04:24;99630.75;;;-5.48;75.54
45327;BME280;31062;49.678;24.560;2022-12-20T00:07:10;99472.53;;;-6.46;75.01
45327;BME280;31062;49.678;24.560;2022-12-20T00:09:55;99649.44;;;-5.28;74.97
45327;BME280;31062;49.678;24.560;2022-12-20T00:12:41;99641.75;;;-5.29;75.43
45327;BME280;31062;49.678;24.560;2022-12-20T00:15:26;99567.75;;;-5.83;75.39
45327;BME280;31062;49.678;24.560;2022-12-20T00:18:12;99657.19;;;-5.17;75.16
45327;BME280;31062;49.678;24.560;2022-12-20T00:21:02;99628.97;;;-5.16;75.52
45327;BME280;31062;49.678;24.560;2022-12-20T00:23:48;99574.75;;;-5.47;75.99
45327;BME280;31062;49.678;24.560;2022-12-20T00:26:34;99628.63;;;-5.06;75.71
45327;BME280;31062;49.678;24.560;2022-12-20T00:29:20;99622.22;;;-4.99;75.81
45327;BME280;31062;49.678;24.560;2022-12-20T00:32:06;99577.22;;;-5.40;75.22
45327;BME280;31062;49.678;24.560;2022-12-20T00:34:51;99618.97;;;-4.94;75.14
45327;BME280;31062;49.678;24.560;2022-12-20T00:37:37;99540.47;;;-5.38;76.00
45327;BME280;31062;49.678;24.560;2022-12-20T00:40:22;99305.22;;;-6.93;75.14
45327;BME280;31062;49.678;24.560;2022-12-20T00:43:08;99461.50;;;-5.89;74.92
45327;BME280;31062;49.678;24.560;2022-12-20T00:45:55;99635.63;;;-4.83;75.19
45327;BME280;31062;49.678;24.560;2022-12-20T00:48:41;99615.88;;;-4.71;75.89
45327;BME280;31062;49.678;24.560;2022-12-20T00:51:28;99402.66;;;-6.06;75.01
45327;BME280;31062;49.678;24.560;2022-12-20T00:54:13;99558.28;;;-4.93;75.21
45327;BME280;31062;49.678;24.560;2022-12-20T00:56:59;99541.00;;;-4.96;75.27
45327;BME280;31062;49.678;24.560;2022-12-20T00:59:45;99591.34;;;-4.55;75.79
45327;BME280;31062;49.678;24.560;2022-12-20T01:02:31;99566.34;;;-4.59;75.38
45327;BME280;31062;49.678;24.560;2022-12-20T01:05:17;99556.72;;;-4.60;75.28
45327;BME280;31062;49.678;24.560;2022-12-20T01:08:03;99572.16;;;-4.47;74.84
45327;BME280;31062;49.678;24.560;2022-12-20T01:11:16;99566.16;;;-4.42;74.99
45327;BME280;31062;49.678;24.560;2022-12-20T01:14:07;99449.97;;;-5.11;74.39
45327;BME280;31062;49.678;24.560;2022-12-20T01:16:53;99549.16;;;-4.43;74.79
45327;BME280;31062;49.678;24.560;2022-12-20T01:19:39;99552.06;;;-4.37;74.39
45327;BME280;31062;49.678;24.560;2022-12-20T01:22:25;99339.03;;;-5.73;75.12
45327;BME280;31062;49.678;24.560;2022-12-20T01:25:10;99513.47;;;-4.50;74.72
45327;BME280;31062;49.678;24.560;2022-12-20T01:27:56;99533.84;;;-4.37;74.55
45327;BME280;31062;49.678;24.560;2022-12-20T01:30:41;99339.41;;;-5.62;73.87
45327;BME280;31062;49.678;24.560;2022-12-20T01:33:27;99313.53;;;-5.72;74.42
45327;BME280;31062;49.678;24.560;2022-12-20T01:36:15;99508.41;;;-4.39;73.96
45327;BME280;31062;49.678;24.560;2022-12-20T01:39:11;99479.81;;;-4.49;74.20
45327;BME280;31062;49.678;24.560;2022-12-20T01:41:57;99505.78;;;-4.30;73.92
45327;BME280;31062;49.678;24.560;2022-12-20T01:47:31;99389.53;;;-4.96;74.36
45327;BME280;31062;49.678;24.560;2022-12-20T01:50:19;99457.25;;;-4.46;73.52
45327;BME280;31062;49.678;24.560;2022-12-20T01:53:04;99461.09;;;-4.66;73.29
45327;BME280;31062;49.678;24.560;2022-12-20T01:55:51;99505.22;;;-4.16;73.33
45327;BME280;31062;49.678;24.560;2022-12-20T01:58:37;99500.13;;;-4.14;72.89
45327;BME280;31062;49.678;24.560;2022-12-20T02:01:24;99391.88;;;-4.76;73.55
45327;BME280;31062;49.678;24.560;2022-12-20T02:04:12;99450.91;;;-4.53;73.58
45327;BME280;31062;49.678;24.560;2022-12-20T02:06:58;99269.78;;;-5.58;73.21
45327;BME280;31062;49.678;24.560;2022-12-20T02:09:44;99293.88;;;-5.42;73.25
45327;BME280;31062;49.678;24.560;2022-12-20T02:12:44;99290.50;;;-5.33;72.69
45327;BME280;31062;49.678;24.560;2022-12-20T02:15:40;99483.00;;;-4.02;73.52
45327;BME280;31062;49.678;24.560;2022-12-20T02:18:41;99471.25;;;-4.08;72.31
45327;BME280;31062;49.678;24.560;2022-12-20T02:21:42;99483.75;;;-4.01;72.37
45327;BME280;31062;49.678;24.560;2022-12-20T02:24:51;99469.31;;;-3.98;73.15
45327;BME280;31062;49.678;24.560;2022-12-20T02:30:46;99478.50;;;-3.96;72.91
45327;BME280;31062;49.678;24.560;2022-12-20T02:33:33;99314.34;;;-5.10;72.27
45327;BME280;31062;49.678;24.560;2022-12-20T02:36:19;99454.41;;;-4.03;72.34
45327;BME280;31062;49.678;24.560;2022-12-20T02:39:11;99477.59;;;-3.93;72.32
45327;BME280;31062;49.678;24.560;2022-12-20T02:42:04;99464.38;;;-3.91;72.75
45327;BME280;31062;49.678;24.560;2022-12-20T02:45:04;99282.03;;;-5.13;71.62
45327;BME280;31062;49.678;24.560;2022-12-20T02:48:02;99464.06;;;-3.93;72.52
45327;BME280;31062;49.678;24.560;2022-12-20T02:50:53;99450.50;;;-3.93;71.78
45327;BME280;31062;49.678;24.560;2022-12-20T02:53:41;99482.41;;;-3.97;72.36
45327;BME280;31062;49.678;24.560;2022-12-20T02:56:43;99455.38;;;-3.88;72.60
45327;BME280;31062;49.678;24.560;2022-12-20T02:59:41;99249.25;;;-5.24;72.51
45327;BME280;31062;49.678;24.560;2022-12-20T03:02:30;99197.16;;;-5.56;72.61
45327;BME280;31062;49.678;24.560;2022-12-20T03:05:45;99273.06;;;-5.01;72.88
45327;BME280;31062;49.678;24.560;2022-12-20T03:08:34;99443.94;;;-3.83;73.04
45327;BME280;31062;49.678;24.560;2022-12-20T03:11:20;99441.50;;;-3.81;72.31
45327;BME280;31062;49.678;24.560;2022-12-20T03:14:05;99397.47;;;-4.21;73.17
45327;BME280;31062;49.678;24.560;2022-12-20T03:16:53;99366.72;;;-4.45;73.12
45327;BME280;31062;49.678;24.560;2022-12-20T03:19:39;99424.06;;;-3.89;72.96
45327;BME280;31062;49.678;24.560;2022-12-20T03:22:24;99389.47;;;-4.34;73.50
45327;BME280;31062;49.678;24.560;2022-12-20T03:25:10;99358.78;;;-4.40;73.05
45327;BME280;31062;49.678;24.560;2022-12-20T03:27:56;99427.03;;;-3.87;74.05
45327;BME280;31062;49.678;24.560;2022-12-20T03:30:43;99223.69;;;-5.23;72.88
45327;BME280;31062;49.678;24.560;2022-12-20T03:33:30;99227.78;;;-5.19;73.61
45327;BME280;31062;49.678;24.560;2022-12-20T03:36:19;99279.84;;;-4.97;73.37
45327;BME280;31062;49.678;24.560;2022-12-20T03:39:13;99379.13;;;-4.26;73.68
45327;BME280;31062;49.678;24.560;2022-12-20T03:41:59;99436.72;;;-3.77;73.01
45327;BME280;31062;49.678;24.560;2022-12-20T03:44:44;99268.06;;;-4.72;73.17
45327;BME280;31062;49.678;24.560;2022-12-20T03:47:30;99406.31;;;-3.72;72.61
45327;BME280;31062;49.678;24.560;2022-12-20T03:50:15;99387.66;;;-3.69;73.23
45327;BME280;31062;49.678;24.560;2022-12-20T03:53:02;99398.00;;;-3.68;73.48
45327;BME280;31062;49.678;24.560;2022-12-20T03:55:50;99339.72;;;-4.27;73.67
45327;BME280;31062;49.678;24.560;2022-12-20T03:58:35;99182.91;;;-5.07;73.30
45327;BME280;31062;49.678;24.560;2022-12-20T04:01:24;99354.50;;;-3.92;73.44
45327;BME280;31062;49.678;24.560;2022-12-20T04:04:12;99394.84;;;-3.57;73.40
45327;BME280;31062;49.678;24.560;2022-12-20T04:06:58;99178.88;;;-5.03;73.57
45327;BME280;31062;49.678;24.560;2022-12-20T04:09:44;99349.06;;;-3.92;73.61
45327;BME280;31062;49.678;24.560;2022-12-20T04:12:31;99397.88;;;-3.55;73.54
45327;BME280;31062;49.678;24.560;2022-12-20T04:15:17;99378.28;;;-3.68;73.47
45327;BME280;31062;49.678;24.560;2022-12-20T04:18:04;99174.53;;;-4.91;73.34
45327;BME280;31062;49.678;24.560;2022-12-20T04:20:53;99377.09;;;-3.58;74.02
45327;BME280;31062;49.678;24.560;2022-12-20T04:23:44;99197.41;;;-4.74;72.91
45327;BME280;31062;49.678;24.560;2022-12-20T04:26:30;99397.88;;;-3.37;73.75
45327;BME280;31062;49.678;24.560;2022-12-20T04:29:18;99410.22;;;-3.36;73.06
45327;BME280;31062;49.678;24.560;2022-12-20T04:32:04;99414.72;;;-3.33;73.27
45327;BME280;31062;49.678;24.560;2022-12-20T04:34:49;99420.91;;;-3.33;72.83
45327;BME280;31062;49.678;24.560;2022-12-20T04:37:36;99373.03;;;-3.63;72.55
45327;BME280;31062;49.678;24.560;2022-12-20T04:40:21;99404.19;;;-3.31;73.28
45327;BME280;31062;49.678;24.560;2022-12-20T04:43:11;99442.16;;;-3.31;72.75
45327;BME280;31062;49.678;24.560;2022-12-20T04:45:56;99399.06;;;-3.29;72.84
45327;BME280;31062;49.678;24.560;2022-12-20T04:48:44;99404.50;;;-3.29;72.92
45327;BME280;31062;49.678;24.560;2022-12-20T04:51:48;99408.13;;;-3.41;73.34
45327;BME280;31062;49.678;24.560;2022-12-20T04:54:35;99328.00;;;-3.79;72.65
45327;BME280;31062;49.678;24.560;2022-12-20T04:57:30;99182.66;;;-4.64;73.13
45327;BME280;31062;49.678;24.560;2022-12-20T05:00:17;99377.81;;;-3.31;72.95
45327;BME280;31062;49.678;24.560;2022-12-20T05:03:08;99190.81;;;-4.55;72.46
45327;BME280;31062;49.678;24.560;2022-12-20T05:05:54;99327.56;;;-3.59;72.93
45327;BME280;31062;49.678;24.560;2022-12-20T05:08:41;99152.16;;;-4.73;72.32
45327;BME280;31062;49.678;24.560;2022-12-20T05:11:27;99336.28;;;-3.46;73.13
45327;BME280;31062;49.678;24.560;2022-12-20T05:14:13;99340.63;;;-3.30;72.98
45327;BME280;31062;49.678;24.560;2022-12-20T05:16:58;99114.59;;;-4.71;72.75
45327;BME280;31062;49.678;24.560;2022-12-20T05:19:45;99154.72;;;-4.79;73.47
45327;BME280;31062;49.678;24.560;2022-12-20T05:22:33;99319.88;;;-3.60;73.69
45327;BME280;31062;49.678;24.560;2022-12-20T05:25:39;99130.97;;;-4.84;73.61
45327;BME280;31062;49.678;24.560;2022-12-20T05:28:46;99263.28;;;-3.86;72.85
45327;BME280;31062;49.678;24.560;2022-12-20T05:31:31;99382.34;;;-3.28;73.08
45327;BME280;31062;49.678;24.560;2022-12-20T05:34:18;99343.16;;;-3.26;72.78
45327;BME280;31062;49.678;24.560;2022-12-20T05:37:09;99361.69;;;-3.25;73.40
45327;BME280;31062;49.678;24.560;2022-12-20T05:39:57;99159.22;;;-4.58;72.82
45327;BME280;31062;49.678;24.560;2022-12-20T05:42:43;99389.28;;;-3.17;73.57
45327;BME280;31062;49.678;24.560;2022-12-20T05:45:30;99117.91;;;-4.67;72.80
45327;BME280;31062;49.678;24.560;2022-12-20T05:48:20;99145.53;;;-4.45;73.32
45327;BME280;31062;49.678;24.560;2022-12-20T05:51:06;99127.03;;;-4.46;72.84
45327;BME280;31062;49.678;24.560;2022-12-20T05:54:04;99292.56;;;-3.39;72.22
45327;BME280;31062;49.678;24.560;2022-12-20T05:57:04;99350.50;;;-3.00;72.63
45327;BME280;31062;49.678;24.560;2022-12-20T05:59:55;99358.91;;;-2.98;72.68
45327;BME280;31062;49.678;24.560;2022-12-20T06:02:42;99190.16;;;-4.04;71.84
45327;BME280;31062;49.678;24.560;2022-12-20T06:05:29;99336.63;;;-3.02;71.62
45327;BME280;31062;49.678;24.560;2022-12-20T06:08:17;99337.22;;;-2.98;71.69
45327;BME280;31062;49.678;24.560;2022-12-20T06:11:03;99336.00;;;-2.97;71.71
45327;BME280;31062;49.678;24.560;2022-12-20T06:13:56;99362.06;;;-2.90;72.11
45327;BME280;31062;49.678;24.560;2022-12-20T06:16:42;99322.44;;;-2.97;71.63
45327;BME280;31062;49.678;24.560;2022-12-20T06:19:29;99262.28;;;-3.28;70.96
45327;BME280;31062;49.678;24.560;2022-12-20T06:22:16;99340.78;;;-2.82;71.42
45327;BME280;31062;49.678;24.560;2022-12-20T06:25:09;99316.25;;;-2.97;71.57
45327;BME280;31062;49.678;24.560;2022-12-20T06:27:57;99342.00;;;-2.83;72.18
45327;BME280;31062;49.678;24.560;2022-12-20T06:30:43;99345.75;;;-2.81;72.39
45327;BME280;31062;49.678;24.560;2022-12-20T06:33:42;99334.31;;;-2.85;72.74
45327;BME280;31062;49.678;24.560;2022-12-20T06:36:29;99277.22;;;-3.42;71.98
45327;BME280;31062;49.678;24.560;2022-12-20T06:39:15;99276.38;;;-3.15;71.72
45327;BME280;31062;49.678;24.560;2022-12-20T06:42:22;99224.34;;;-3.37;71.19
45327;BME280;31062;49.678;24.560;2022-12-20T06:45:08;99332.56;;;-2.64;71.14
45327;BME280;31062;49.678;24.560;2022-12-20T06:47:56;99322.00;;;-2.62;71.95
45327;BME280;31062;49.678;24.560;2022-12-20T06:50:42;99248.38;;;-3.21;71.61
45327;BME280;31062;49.678;24.560;2022-12-20T06:53:28;99314.44;;;-2.58;71.62
45327;BME280;31062;49.678;24.560;2022-12-20T06:56:14;99270.41;;;-2.86;71.73
45327;BME280;31062;49.678;24.560;2022-12-20T06:59:00;99305.84;;;-2.57;71.34
45327;BME280;31062;49.678;24.560;2022-12-20T07:01:46;99258.50;;;-2.89;71.20
45327;BME280;31062;49.678;24.560;2022-12-20T07:04:32;99108.47;;;-3.93;70.93
45327;BME280;31062;49.678;24.560;2022-12-20T07:07:18;99180.38;;;-3.41;71.31
45327;BME280;31062;49.678;24.560;2022-12-20T07:10:04;99147.00;;;-3.56;71.28
45327;BME280;31062;49.678;24.560;2022-12-20T07:12:51;99301.75;;;-2.52;70.72
45327;BME280;31062;49.678;24.560;2022-12-20T07:15:37;99180.06;;;-3.34;71.18
45327;BME280;31062;49.678;24.560;2022-12-20T07:18:22;99234.09;;;-2.98;71.10
45327;BME280;31062;49.678;24.560;2022-12-20T07:21:10;99247.88;;;-2.77;70.75
45327;BME280;31062;49.678;24.560;2022-12-20T07:23:58;99174.56;;;-3.25;70.36
45327;BME280;31062;49.678;24.560;2022-12-20T07:26:44;99243.03;;;-2.73;70.16
45327;BME280;31062;49.678;24.560;2022-12-20T07:29:29;99264.59;;;-2.70;70.21
45327;BME280;31062;49.678;24.560;2022-12-20T07:32:15;99309.72;;;-2.25;70.67
45327;BME280;31062;49.678;24.560;2022-12-20T07:35:00;99248.72;;;-2.62;71.21
45327;BME280;31062;49.678;24.560;2022-12-20T07:37:46;99299.72;;;-2.19;71.12
45327;BME280;31062;49.678;24.560;2022-12-20T07:40:32;99278.41;;;-2.35;71.14
45327;BME280;31062;49.678;24.560;2022-12-20T07:43:17;99235.53;;;-2.78;70.52
45327;BME280;31062;49.678;24.560;2022-12-20T07:46:04;99307.31;;;-2.08;70.12
45327;BME280;31062;49.678;24.560;2022-12-20T07:48:51;99073.25;;;-3.60;70.73
45327;BME280;31062;49.678;24.560;2022-12-20T07:51:46;99292.38;;;-2.03;70.93
45327;BME280;31062;49.678;24.560;2022-12-20T07:54:36;99267.53;;;-2.35;70.67
45327;BME280;31062;49.678;24.560;2022-12-20T07:57:26;99288.41;;;-2.02;71.18
45327;BME280;31062;49.678;24.560;2022-12-20T08:00:14;99256.31;;;-2.28;70.89
45327;BME280;31062;49.678;24.560;2022-12-20T08:03:07;99040.78;;;-3.69;69.93
45327;BME280;31062;49.678;24.560;2022-12-20T08:05:57;99273.06;;;-2.06;71.14
45327;BME280;31062;49.678;24.560;2022-12-20T08:08:50;99277.03;;;-1.92;71.40
45327;BME280;31062;49.678;24.560;2022-12-20T08:11:40;99255.09;;;-2.03;71.38
45327;BME280;31062;49.678;24.560;2022-12-20T08:14:27;99088.66;;;-3.19;71.26
45327;BME280;31062;49.678;24.560;2022-12-20T08:17:13;99275.81;;;-1.76;71.89
45327;BME280;31062;49.678;24.560;2022-12-20T08:19:59;99294.84;;;-1.76;72.41
45327;BME280;31062;49.678;24.560;2022-12-20T08:22:45;99171.97;;;-2.48;72.73
45327;BME280;31062;49.678;24.560;2022-12-20T08:25:33;99199.66;;;-2.20;72.90
45327;BME280;31062;49.678;24.560;2022-12-20T08:28:26;99270.88;;;-1.63;73.71
45327;BME280;31062;49.678;24.560;2022-12-20T08:31:12;99269.47;;;-1.58;73.99
45327;BME280;31062;49.678;24.560;2022-12-20T08:34:00;99160.50;;;-2.28;73.70
45327;BME280;31062;49.678;24.560;2022-12-20T08:36:45;99222.13;;;-1.81;73.66
45327;BME280;31062;49.678;24.560;2022-12-20T08:39:31;99282.88;;;-1.55;73.63
45327;BME280;31062;49.678;24.560;2022-12-20T08:42:16;99263.19;;;-1.50;73.33
45327;BME280;31062;49.678;24.560;2022-12-20T08:45:03;99186.84;;;-1.90;73.31
45327;BME280;31062;49.678;24.560;2022-12-20T08:47:48;99234.13;;;-1.44;74.76
45327;BME280;31062;49.678;24.560;2022-12-20T08:50:34;99070.50;;;-2.51;73.53
45327;BME280;31062;49.678;24.560;2022-12-20T08:53:20;99223.25;;;-1.44;73.88
45327;BME280;31062;49.678;24.560;2022-12-20T08:56:14;99180.88;;;-1.65;73.56
45327;BME280;31062;49.678;24.560;2022-12-20T08:59:01;99183.50;;;-1.71;74.56
45327;BME280;31062;49.678;24.560;2022-12-20T09:01:46;99232.25;;;-1.38;74.00
45327;BME280;31062;49.678;24.560;2022-12-20T09:04:32;99108.63;;;-1.86;73.89
45327;BME280;31062;49.678;24.560;2022-12-20T09:07:18;99163.13;;;-1.46;72.99
45327;BME280;31062;49.678;24.560;2022-12-20T09:10:04;99204.34;;;-1.18;73.21
45327;BME280;31062;49.678;24.560;2022-12-20T09:12:49;99183.88;;;-1.13;72.69
45327;BME280;31062;49.678;24.560;2022-12-20T09:15:35;99176.50;;;-1.28;72.98
45327;BME280;31062;49.678;24.560;2022-12-20T09:18:21;99198.59;;;-1.05;73.33
45327;BME280;31062;49.678;24.560;2022-12-20T09:21:08;99181.31;;;-1.02;73.41
45327;BME280;31062;49.678;24.560;2022-12-20T09:23:55;99184.31;;;-1.00;72.89
45327;BME280;31062;49.678;24.560;2022-12-20T09:26:42;99198.47;;;-0.96;73.17
45327;BME280;31062;49.678;24.560;2022-12-20T09:29:30;99161.31;;;-0.99;73.41
45327;BME280;31062;49.678;24.560;2022-12-20T09:32:20;99145.66;;;-1.04;73.76
45327;BME280;31062;49.678;24.560;2022-12-20T09:35:06;99145.25;;;-0.97;72.95
45327;BME280;31062;49.678;24.560;2022-12-20T09:37:52;99141.97;;;-1.01;72.92
45327;BME280;31062;49.678;24.560;2022-12-20T09:40:44;98993.06;;;-1.96;73.35
45327;BME280;31062;49.678;24.560;2022-12-20T09:43:32;99146.34;;;-0.89;73.02
45327;BME280;31062;49.678;24.560;2022-12-20T09:46:18;99148.41;;;-0.84;72.60
45327;BME280;31062;49.678;24.560;2022-12-20T09:49:04;99127.56;;;-0.87;72.54
45327;BME280;31062;49.678;24.560;2022-12-20T10:01:13;99047.03;;;-1.19;72.51
45327;BME280;31062;49.678;24.560;2022-12-20T10:04:25;99127.41;;;-0.58;72.41
45327;BME280;31062;49.678;24.560;2022-12-20T10:07:25;99121.78;;;-0.54;72.19
45327;BME280;31062;49.678;24.560;2022-12-20T10:10:20;98933.59;;;-1.74;71.76
45327;BME280;31062;49.678;24.560;2022-12-20T10:13:37;99128.56;;;-0.44;72.01
45327;BME280;31062;49.678;24.560;2022-12-20T10:16:57;99118.94;;;-0.39;72.27
45327;BME280;31062;49.678;24.560;2022-12-20T10:20:07;99105.59;;;-0.37;71.86
45327;BME280;31062;49.678;24.560;2022-12-20T10:23:01;99107.34;;;-0.34;71.23
45327;BME280;31062;49.678;24.560;2022-12-20T10:25:50;99101.91;;;-0.34;71.62
45327;BME280;31062;49.678;24.560;2022-12-20T10:28:38;99095.50;;;-0.31;71.59
45327;BME280;31062;49.678;24.560;2022-12-20T10:31:26;99082.94;;;-0.23;74.44
45327;BME280;31062;49.678;24.560;2022-12-20T10:34:14;98890.19;;;-1.43;72.22
45327;BME280;31062;49.678;24.560;2022-12-20T10:37:11;99072.94;;;-0.06;71.75
45327;BME280;31062;49.678;24.560;2022-12-20T10:39:57;99079.44;;;0.02;71.02
45327;BME280;31062;49.678;24.560;2022-12-20T10:42:51;99036.16;;;-0.16;70.56
45327;BME280;31062;49.678;24.560;2022-12-20T10:45:41;98988.19;;;-0.39;70.36
45327;BME280;31062;49.678;24.560;2022-12-20T10:51:21;98924.28;;;-0.70;70.18
45327;BME280;31062;49.678;24.560;2022-12-20T10:54:33;99083.72;;;0.46;70.11
45327;BME280;31062;49.678;24.560;2022-12-20T10:57:24;99080.78;;;0.55;69.46
45327;BME280;31062;49.678;24.560;2022-12-20T11:00:27;98874.31;;;-0.67;69.84
45327;BME280;31062;49.678;24.560;2022-12-20T11:06:02;99049.09;;;0.63;69.61
45327;BME280;31062;49.678;24.560;2022-12-20T11:08:49;99071.03;;;0.85;69.25
45327;BME280;31062;49.678;24.560;2022-12-20T11:12:04;99041.78;;;0.91;68.59
45327;BME280;31062;49.678;24.560;2022-12-20T11:15:10;99040.34;;;1.01;67.86
45327;BME280;31062;49.678;24.560;2022-12-20T11:21:02;99058.50;;;1.15;67.32
45327;BME280;31062;49.678;24.560;2022-12-20T11:24:10;99028.94;;;1.19;67.66
45327;BME280;31062;49.678;24.560;2022-12-20T11:27:25;98992.16;;;0.98;66.51
45327;BME280;31062;49.678;24.560;2022-12-20T11:30:20;99021.53;;;1.26;66.89
45327;BME280;31062;49.678;24.560;2022-12-20T11:33:13;98932.03;;;0.65;67.29
45327;BME280;31062;49.678;24.560;2022-12-20T11:36:35;98944.50;;;0.88;67.29
45327;BME280;31062;49.678;24.560;2022-12-20T11:39:43;99006.63;;;1.38;67.17
45327;BME280;31062;49.678;24.560;2022-12-20T11:49:35;99001.22;;;1.49;67.78
45327;BME280;31062;49.678;24.560;2022-12-20T11:55:24;98987.28;;;1.58;66.92
45327;BME280;31062;49.678;24.560;2022-12-20T11:58:19;99028.03;;;1.56;66.61
45327;BME280;31062;49.678;24.560;2022-12-20T12:01:13;98993.78;;;1.66;66.91
45327;BME280;31062;49.678;24.560;2022-12-20T12:04:11;98998.50;;;1.71;66.99
45327;BME280;31062;49.678;24.560;2022-12-20T12:07:08;98939.81;;;1.22;67.03
45327;BME280;31062;49.678;24.560;2022-12-20T12:13:14;98986.81;;;1.76;66.60
45327;BME280;31062;49.678;24.560;2022-12-20T12:16:19;99009.41;;;1.82;66.33
45327;BME280;31062;49.678;24.560;2022-12-20T12:19:09;98985.06;;;1.84;66.32
45327;BME280;31062;49.678;24.560;2022-12-20T12:22:02;98831.31;;;0.78;65.99
45327;BME280;31062;49.678;24.560;2022-12-20T12:24:55;98965.69;;;1.71;65.47
45327;BME280;31062;49.678;24.560;2022-12-20T12:27:43;98991.03;;;1.88;66.12
45327;BME280;31062;49.678;24.560;2022-12-20T12:30:36;98841.25;;;0.87;65.84
45327;BME280;31062;49.678;24.560;2022-12-20T12:33:34;98826.38;;;0.88;65.86
45327;BME280;31062;49.678;24.560;2022-12-20T12:36:41;98979.34;;;1.93;65.83
45327;BME280;31062;49.678;24.560;2022-12-20T12:42:54;98980.31;;;2.01;64.61
45327;BME280;31062;49.678;24.560;2022-12-20T12:45:47;98903.34;;;1.53;64.95
45327;BME280;31062;49.678;24.560;2022-12-20T12:48:55;98976.59;;;1.82;64.89
45327;BME280;31062;49.678;24.560;2022-12-20T12:51:49;98982.31;;;2.07;65.00
45327;BME280;31062;49.678;24.560;2022-12-20T12:54:37;99005.69;;;2.08;64.92
45327;BME280;31062;49.678;24.560;2022-12-20T12:57:24;98969.59;;;2.09;65.06
45327;BME280;31062;49.678;24.560;2022-12-20T13:00:50;98970.34;;;2.10;64.98
45327;BME280;31062;49.678;24.560;2022-12-20T13:27:39;98960.41;;;2.12;65.53
45327;BME280;31062;49.678;24.560;2022-12-20T13:30:26;98963.91;;;2.13;65.62
45327;BME280;31062;49.678;24.560;2022-12-20T13:33:21;98950.47;;;2.03;65.32
45327;BME280;31062;49.678;24.560;2022-12-20T13:38:56;98964.88;;;2.10;65.24
45327;BME280;31062;49.678;24.560;2022-12-20T13:41:46;98968.13;;;2.08;65.59
45327;BME280;31062;49.678;24.560;2022-12-20T13:44:42;98925.66;;;1.79;65.43
45327;BME280;31062;49.678;24.560;2022-12-20T13:47:44;98929.63;;;1.67;65.35
45327;BME280;31062;49.678;24.560;2022-12-20T13:50:35;98952.72;;;1.94;65.48
45327;BME280;31062;49.678;24.560;2022-12-20T13:53:25;98966.13;;;1.97;65.90
45327;BME280;31062;49.678;24.560;2022-12-20T13:56:43;98973.13;;;1.87;65.67
45327;BME280;31062;49.678;24.560;2022-12-20T13:59:31;98808.50;;;0.70;65.82
45327;BME280;31062;49.678;24.560;2022-12-20T14:02:29;98984.31;;;1.89;65.81
45327;BME280;31062;49.678;24.560;2022-12-20T14:08:14;98948.03;;;1.72;65.86
45327;BME280;31062;49.678;24.560;2022-12-20T14:11:17;98970.88;;;1.91;65.79
45327;BME280;31062;49.678;24.560;2022-12-20T14:14:03;98966.66;;;1.90;66.70
45327;BME280;31062;49.678;24.560;2022-12-20T14:16:49;98956.97;;;1.84;66.36
45327;BME280;31062;49.678;24.560;2022-12-20T14:19:34;98919.47;;;1.56;66.47
45327;BME280;31062;49.678;24.560;2022-12-20T14:22:20;98973.88;;;1.77;66.44
45327;BME280;31062;49.678;24.560;2022-12-20T14:25:07;98956.47;;;1.85;66.15
45327;BME280;31062;49.678;24.560;2022-12-20T14:27:54;98805.00;;;0.86;66.08
45327;BME280;31062;49.678;24.560;2022-12-20T14:30:41;98773.25;;;0.61;66.32
45327;BME280;31062;49.678;24.560;2022-12-20T14:33:36;98945.06;;;1.70;66.75
45327;BME280;31062;49.678;24.560;2022-12-20T14:36:23;98943.06;;;1.65;66.51
45327;BME280;31062;49.678;24.560;2022-12-20T14:42:18;98954.75;;;1.66;66.96
45327;BME280;31062;49.678;24.560;2022-12-20T14:45:17;98951.28;;;1.59;67.06
45327;BME280;31062;49.678;24.560;2022-12-20T14:48:05;98946.56;;;1.60;66.67
45327;BME280;31062;49.678;24.560;2022-12-20T14:51:03;98952.25;;;1.56;66.60
45327;BME280;31062;49.678;24.560;2022-12-20T14:53:50;98949.53;;;1.51;66.86
45327;BME280;31062;49.678;24.560;2022-12-20T14:56:36;98929.66;;;1.34;66.82
45327;BME280;31062;49.678;24.560;2022-12-20T14:59:28;98754.56;;;0.15;66.83
45327;BME280;31062;49.678;24.560;2022-12-20T15:02:34;98917.97;;;1.28;67.79
45327;BME280;31062;49.678;24.560;2022-12-20T15:08:29;98872.03;;;0.98;67.52
45327;BME280;31062;49.678;24.560;2022-12-20T15:11:21;98935.88;;;1.45;67.72
45327;BME280;31062;49.678;24.560;2022-12-20T15:14:36;98934.13;;;1.48;67.35
45327;BME280;31062;49.678;24.560;2022-12-20T15:17:23;98818.41;;;0.73;67.31
45327;BME280;31062;49.678;24.560;2022-12-20T15:20:13;98705.75;;;0.00;67.29
45327;BME280;31062;49.678;24.560;2022-12-20T15:22:59;98926.69;;;1.54;67.21
45327;BME280;31062;49.678;24.560;2022-12-20T15:25:45;98924.69;;;1.60;66.94
45327;BME280;31062;49.678;24.560;2022-12-20T15:28:31;98926.41;;;1.69;66.59
45327;BME280;31062;49.678;24.560;2022-12-20T15:31:19;98812.47;;;0.91;66.57
45327;BME280;31062;49.678;24.560;2022-12-20T15:34:12;98932.41;;;1.73;66.42
45327;BME280;31062;49.678;24.560;2022-12-20T15:36:58;98747.69;;;0.53;66.44
45327;BME280;31062;49.678;24.560;2022-12-20T15:39:44;98755.13;;;0.52;66.24
45327;BME280;31062;49.678;24.560;2022-12-20T15:42:30;98909.75;;;1.61;66.14
45327;BME280;31062;49.678;24.560;2022-12-20T15:45:16;98742.22;;;0.36;65.99
45327;BME280;31062;49.678;24.560;2022-12-20T15:48:02;98933.38;;;1.58;66.20
45327;BME280;31062;49.678;24.560;2022-12-20T15:50:55;98931.13;;;1.68;66.45
45327;BME280;31062;49.678;24.560;2022-12-20T15:53:42;98781.44;;;0.72;66.27
45327;BME280;31062;49.678;24.560;2022-12-20T15:56:28;98928.91;;;1.72;66.42
45327;BME280;31062;49.678;24.560;2022-12-20T15:59:14;98925.44;;;1.72;65.74
45327;BME280;31062;49.678;24.560;2022-12-20T16:02:26;98874.03;;;1.37;65.79
45327;BME280;31062;49.678;24.560;2022-12-20T16:05:13;98747.44;;;0.51;66.22
45327;BME280;31062;49.678;24.560;2022-12-20T16:07:59;98911.78;;;1.66;66.05
45327;BME280;31062;49.678;24.560;2022-12-20T16:10:45;98918.97;;;1.69;65.73